Time;durP1;ratioP1;P1;durP2;ratioP2;P2;SDS_P1;SDS_P2;PMS_P1;PMS_P2;Temp;Humidity;BMP_temperature;BMP_pressure;BME280_temperature;BME280_humidity;BME280_pressure;Samples;Min_cycle;Max_cycle;Signal;HPM_P1;HPM_P2
2022/08/12 00:43:29;;;;;;;2.20;0.73;;;;;;;19.84;57.07;95631.72;4284520;33;20249;-62
2022/08/12 00:48:40;;;;;;;0.20;0.20;;;;;;;19.89;56.44;95625.31;4295307;33;20252;-62
2022/08/12 00:51:07;;;;;;;0.70;0.70;;;;;;;19.81;58.13;95634.31;4289638;33;20224;-62
2022/08/12 00:53:34;;;;;;;0.47;0.47;;;;;;;19.94;58.28;95626.97;4272320;33;20217;-62
2022/08/12 00:56:00;;;;;;;0.57;0.57;;;;;;;20.08;58.03;95628.13;4290914;33;20252;-62
2022/08/12 00:58:28;;;;;;;5.80;0.87;;;;;;;20.07;57.89;95618.47;4268245;33;20246;-62
2022/08/12 01:01:15;;;;;;;0.37;0.37;;;;;;;20.03;56.84;95625.66;4283194;33;20195;-60
2022/08/12 01:11:59;;;;;;;0.60;0.60;;;;;;;19.67;58.50;95620.50;4292121;33;20205;-62
2022/08/12 01:14:25;;;;;;;0.33;0.33;;;;;;;19.74;57.93;95618.00;4288988;33;20194;-62
2022/08/12 01:16:51;;;;;;;0.83;0.60;;;;;;;19.59;58.74;95608.72;4289425;33;20198;-61
2022/08/12 01:19:20;;;;;;;0.50;0.50;;;;;;;19.67;57.59;95607.81;4283120;33;20263;-60
2022/08/12 01:22:13;;;;;;;1.13;1.13;;;;;;;19.66;58.18;95606.25;4283657;33;20187;-63
2022/08/12 01:25:00;;;;;;;0.30;0.30;;;;;;;19.66;59.04;95616.22;4271899;33;20228;-61
2022/08/12 01:27:27;;;;;;;0.50;0.50;;;;;;;19.76;57.89;95611.13;4288149;33;20253;-60
2022/08/12 01:29:55;;;;;;;0.90;0.90;;;;;;;19.70;58.50;95614.41;4289218;33;20189;-61
2022/08/12 01:32:22;;;;;;;0.70;0.70;;;;;;;19.72;58.51;95621.03;4292723;33;20262;-61
2022/08/12 01:35:04;;;;;;;0.30;0.30;;;;;;;19.69;57.60;95616.31;4294480;33;20209;-61
2022/08/12 01:37:35;;;;;;;0.43;0.37;;;;;;;19.65;57.75;95618.13;4266788;33;20249;-61
2022/08/12 01:40:04;;;;;;;0.93;0.73;;;;;;;19.84;58.45;95618.25;4283274;33;20212;-61
2022/08/12 01:42:48;;;;;;;0.50;0.50;;;;;;;19.72;58.20;95618.34;4285588;33;20226;-61
2022/08/12 01:45:16;;;;;;;0.30;0.30;;;;;;;19.93;58.14;95614.62;4262397;33;20194;-61
2022/08/12 01:48:00;;;;;;;0.60;0.60;;;;;;;19.80;58.01;95616.59;4284104;33;20213;-61
2022/08/12 01:51:07;;;;;;;0.50;0.50;;;;;;;19.67;57.77;95613.19;4268055;33;20197;-61
2022/08/12 01:53:56;;;;;;;11.20;1.37;;;;;;;19.62;58.55;95613.44;4272792;33;20243;-60
2022/08/12 01:56:24;;;;;;;0.50;0.50;;;;;;;19.61;58.05;95611.88;4296972;33;20226;-61
2022/08/12 02:01:42;;;;;;;0.20;0.20;;;;;;;19.65;58.08;95604.69;4286679;33;20221;-60
2022/08/12 02:11:30;;;;;;;0.63;0.63;;;;;;;19.13;59.11;95596.66;4206271;33;20222;-61
2022/08/12 02:14:17;;;;;;;0.63;0.63;;;;;;;19.28;59.07;95600.53;4290925;33;20205;-61
2022/08/12 02:17:04;;;;;;;0.50;0.50;;;;;;;19.34;58.21;95601.84;4291661;33;20208;-61
2022/08/12 02:19:53;;;;;;;1.63;0.90;;;;;;;19.29;59.56;95602.09;4264513;33;20208;-61
2022/08/12 02:22:37;;;;;;;0.60;0.60;;;;;;;19.19;59.37;95595.28;4287237;33;20205;-61
2022/08/12 02:25:12;;;;;;;1.10;0.77;;;;;;;19.35;59.35;95593.44;4292903;33;20182;-61
2022/08/12 02:27:46;;;;;;;0.63;0.63;;;;;;;19.40;59.16;95593.19;4290393;33;20194;-61
2022/08/12 02:30:14;;;;;;;0.70;0.70;;;;;;;19.20;59.51;95588.78;4300104;33;20190;-61
2022/08/12 02:32:43;;;;;;;0.50;0.50;;;;;;;19.27;58.66;95594.38;4276516;33;20198;-61
2022/08/12 02:35:24;;;;;;;0.50;0.50;;;;;;;19.27;60.00;95588.22;4285565;33;20190;-61
2022/08/12 02:37:52;;;;;;;1.83;0.97;;;;;;;19.24;59.80;95589.69;4288517;33;20250;-61
2022/08/12 02:40:19;;;;;;;0.63;0.63;;;;;;;19.24;59.68;95578.91;4280051;33;20243;-61
2022/08/12 02:43:01;;;;;;;1.00;0.63;;;;;;;18.98;60.23;95582.00;4270653;33;20216;-60
2022/08/12 02:45:54;;;;;;;0.50;0.50;;;;;;;19.01;60.31;95575.97;4279678;33;20189;-61
2022/08/12 02:48:29;;;;;;;0.80;0.80;;;;;;;19.18;60.30;95575.69;4286338;33;20194;-61
2022/08/12 02:51:00;;;;;;;0.60;0.60;;;;;;;19.11;61.45;95575.50;4291991;33;20218;-61
2022/08/12 02:53:26;;;;;;;0.93;0.87;;;;;;;19.25;60.82;95568.94;4285985;33;20225;-61
2022/08/12 02:55:52;;;;;;;0.93;0.93;;;;;;;19.22;61.14;95571.19;4286355;33;20273;-61
2022/08/12 02:58:18;;;;;;;0.90;0.90;;;;;;;18.99;60.78;95583.59;4274717;33;20195;-61
2022/08/12 03:00:44;;;;;;;0.70;0.70;;;;;;;19.13;60.55;95577.81;4301745;33;20198;-60
2022/08/12 03:03:12;;;;;;;0.97;0.97;;;;;;;19.06;61.14;95573.03;4289031;33;20222;-61
2022/08/12 03:06:01;;;;;;;0.47;0.47;;;;;;;19.19;60.20;95573.78;4286731;33;20325;-61
2022/08/12 03:08:34;;;;;;;1.30;1.03;;;;;;;19.26;61.10;95578.56;4286309;33;20209;-60
2022/08/12 03:11:20;;;;;;;0.90;0.90;;;;;;;18.93;61.23;95576.88;4292989;33;20229;-61
2022/08/12 03:13:51;;;;;;;1.70;0.97;;;;;;;18.94;60.18;95573.06;4286309;33;20218;-63
2022/08/12 03:16:19;;;;;;;1.03;1.03;;;;;;;18.97;61.21;95567.00;4279685;33;20201;-61
2022/08/12 03:18:45;;;;;;;0.77;0.77;;;;;;;18.87;60.66;95575.56;4289354;33;20222;-61
2022/08/12 03:21:12;;;;;;;10.03;0.63;;;;;;;19.00;59.23;95574.38;4294692;33;20202;-60
2022/08/12 03:23:39;;;;;;;1.63;1.00;;;;;;;19.17;61.21;95573.31;4282900;33;20187;-61
2022/08/12 03:26:08;;;;;;;2.40;0.93;;;;;;;19.18;59.56;95582.97;4272769;33;22057;-61
2022/08/12 03:28:50;;;;;;;0.70;0.57;;;;;;;19.04;59.68;95580.66;4284786;33;20218;-60
2022/08/12 03:31:18;;;;;;;0.53;0.53;;;;;;;18.78;60.96;95580.25;4287215;33;20191;-63
2022/08/12 03:33:46;;;;;;;1.10;1.03;;;;;;;18.77;60.42;95576.00;4292523;33;20217;-61
2022/08/12 03:36:17;;;;;;;0.60;0.60;;;;;;;18.71;60.14;95577.34;4285875;33;20202;-61
2022/08/12 03:38:50;;;;;;;0.80;0.80;;;;;;;18.78;61.67;95582.94;4285131;33;20213;-61
2022/08/12 03:41:36;;;;;;;0.90;0.90;;;;;;;18.67;60.19;95577.28;4292992;33;20205;-62
2022/08/12 04:00:45;;;;;;;0.70;0.70;;;;;;;18.61;61.87;95580.50;4285335;33;20234;-61
2022/08/12 04:05:55;;;;;;;1.70;1.10;;;;;;;18.46;61.98;95573.91;4290997;33;20222;-61
2022/08/12 04:08:25;;;;;;;0.40;0.40;;;;;;;18.53;62.26;95577.56;4287751;33;20190;-61
2022/08/12 04:13:36;;;;;;;1.80;1.20;;;;;;;18.63;61.98;95571.00;4279647;33;20250;-61
2022/08/12 04:16:03;;;;;;;1.43;0.90;;;;;;;18.75;61.16;95568.28;4282855;33;20190;-60
2022/08/12 04:18:30;;;;;;;0.53;0.53;;;;;;;18.89;61.45;95573.31;4287437;33;20280;-61
2022/08/12 04:20:57;;;;;;;0.50;0.50;;;;;;;18.79;60.79;95576.44;4288098;33;20183;-61
2022/08/12 04:23:24;;;;;;;0.60;0.60;;;;;;;18.81;60.68;95572.31;4289093;33;20195;-61
2022/08/12 04:25:50;;;;;;;0.90;0.90;;;;;;;18.75;60.53;95575.56;4282926;33;20220;-61
2022/08/12 04:28:15;;;;;;;0.97;0.97;;;;;;;18.92;61.25;95567.22;4286169;33;20202;-63
2022/08/12 04:30:42;;;;;;;0.87;0.87;;;;;;;18.74;61.06;95571.31;4297917;33;20199;-61
2022/08/12 04:33:08;;;;;;;0.97;0.97;;;;;;;18.70;60.50;95578.50;4288045;33;20202;-61
2022/08/12 04:35:34;;;;;;;2.27;1.27;;;;;;;18.67;60.86;95582.66;4291372;33;20244;-60
2022/08/12 04:38:00;;;;;;;0.90;0.90;;;;;;;18.72;61.67;95584.28;4294617;33;20237;-60
2022/08/12 04:40:29;;;;;;;0.60;0.60;;;;;;;18.81;61.47;95582.28;4290580;33;20191;-60
2022/08/12 04:42:54;;;;;;;6.30;1.10;;;;;;;18.75;61.02;95589.78;4284068;33;20249;-61
2022/08/12 04:45:20;;;;;;;0.57;0.57;;;;;;;18.69;60.42;95587.69;4284771;33;20264;-61
2022/08/12 04:47:46;;;;;;;0.83;0.83;;;;;;;18.67;61.24;95581.88;4284386;33;20190;-63
2022/08/12 04:50:15;;;;;;;1.23;1.13;;;;;;;18.99;62.05;95580.87;4285455;33;20266;-61
2022/08/12 04:52:41;;;;;;;0.60;0.60;;;;;;;18.72;61.41;95582.38;4293212;33;20198;-61
2022/08/12 04:55:09;;;;;;;1.30;0.93;;;;;;;18.82;61.61;95586.53;4269449;33;20246;-61
2022/08/12 04:57:35;;;;;;;0.40;0.40;;;;;;;18.69;61.91;95579.63;4264667;33;20194;-60
2022/08/12 05:00:05;;;;;;;0.67;0.60;;;;;;;18.78;61.31;95589.13;4269318;33;20257;-60
2022/08/12 05:02:31;;;;;;;0.73;0.73;;;;;;;18.70;61.13;95589.25;4278050;33;20198;-60
2022/08/12 05:04:57;;;;;;;0.70;0.70;;;;;;;18.80;62.31;95591.47;4282560;33;20236;-60
2022/08/12 05:07:22;;;;;;;0.87;0.87;;;;;;;18.70;61.78;95587.34;4275398;33;20261;-61
2022/08/12 05:09:48;;;;;;;0.80;0.80;;;;;;;18.77;62.43;95597.50;4281055;33;20206;-61
2022/08/12 05:12:18;;;;;;;0.60;0.60;;;;;;;18.70;60.98;95589.25;4285409;33;20214;-61
2022/08/12 05:14:44;;;;;;;0.73;0.37;;;;;;;18.68;60.08;95592.28;4283414;33;20203;-60
2022/08/12 05:17:09;;;;;;;3.03;1.20;;;;;;;18.81;61.15;95596.50;4288469;33;20186;-60
2022/08/12 05:19:35;;;;;;;0.90;0.90;;;;;;;18.85;61.44;95593.94;4283757;33;22219;-61
2022/08/12 05:22:00;;;;;;;0.40;0.40;;;;;;;18.72;61.07;95595.03;4284575;33;20197;-61
2022/08/12 05:24:25;;;;;;;3.40;0.90;;;;;;;18.84;60.34;95605.81;4284122;33;20206;-61
2022/08/12 05:26:51;;;;;;;0.60;0.47;;;;;;;18.85;61.42;95602.00;4286677;33;20246;-61
2022/08/12 05:29:16;;;;;;;0.70;0.70;;;;;;;18.94;61.50;95602.63;4284990;33;20191;-61
2022/08/12 05:31:42;;;;;;;1.00;0.97;;;;;;;18.72;60.65;95600.44;4291929;33;20224;-61
2022/08/12 05:34:13;;;;;;;1.67;0.90;;;;;;;18.79;60.67;95606.03;4292350;33;20187;-61
2022/08/12 05:36:39;;;;;;;0.98;0.98;;;;;;;18.86;61.07;95606.25;4272546;33;20096;-61
2022/08/12 05:39:04;;;;;;;0.37;0.37;;;;;;;18.81;61.73;95609.16;4286870;33;20187;-61
2022/08/12 05:41:34;;;;;;;0.70;0.70;;;;;;;18.89;59.06;95610.94;4274015;33;20252;-61
2022/08/12 05:44:15;;;;;;;0.40;0.40;;;;;;;18.92;60.73;95604.88;4286056;33;20190;-61
2022/08/12 05:46:41;;;;;;;0.60;0.60;;;;;;;18.80;59.91;95610.28;4293792;33;20179;-61
2022/08/12 05:49:07;;;;;;;1.27;1.17;;;;;;;18.97;61.33;95610.03;4286882;33;20281;-60
2022/08/12 05:51:35;;;;;;;0.50;0.50;;;;;;;18.84;59.30;95611.19;4284313;33;20270;-61
2022/08/12 05:54:01;;;;;;;0.80;0.80;;;;;;;18.90;60.81;95606.34;4280091;33;20277;-60
2022/08/12 05:56:32;;;;;;;0.57;0.57;;;;;;;19.17;61.18;95608.28;4271556;33;20221;-61
2022/08/12 05:59:00;;;;;;;0.80;0.80;;;;;;;19.30;60.46;95609.06;4273816;33;20201;-61
2022/08/12 06:01:26;;;;;;;2.27;0.57;;;;;;;19.09;59.36;95609.22;4273626;33;20195;-61
2022/08/12 06:03:52;;;;;;;21.00;2.83;;;;;;;18.99;57.82;95610.47;4284730;33;20216;-61
2022/08/12 06:06:19;;;;;;;6.73;1.67;;;;;;;19.07;60.91;95598.03;4285887;33;20199;-60
2022/08/12 06:08:52;;;;;;;1.10;1.00;;;;;;;18.96;60.22;95611.16;4297045;33;20203;-61
2022/08/12 06:11:19;;;;;;;2.00;1.17;;;;;;;18.92;57.42;95604.09;4282670;33;20225;-61
2022/08/12 06:13:44;;;;;;;4.83;2.20;;;;;;;18.70;60.02;95613.44;4285315;33;20190;-61
2022/08/12 06:16:13;;;;;;;4.47;1.93;;;;;;;18.89;61.36;95621.72;4291550;33;20241;-61
2022/08/12 06:18:40;;;;;;;1.80;1.70;;;;;;;19.03;60.96;95614.06;4284791;33;20194;-60
2022/08/12 06:21:10;;;;;;;4.40;1.30;;;;;;;18.92;59.78;95615.62;4276338;33;20221;-61
2022/08/12 06:23:36;;;;;;;0.97;0.97;;;;;;;18.95;60.59;95606.09;4245688;33;20290;-61
2022/08/12 06:26:10;;;;;;;1.43;1.33;;;;;;;18.98;59.20;95608.91;4272994;33;20190;-65
2022/08/12 06:28:37;;;;;;;1.10;0.93;;;;;;;19.01;58.29;95604.75;4279264;33;20254;-61
2022/08/12 06:31:12;;;;;;;2.73;1.03;;;;;;;18.97;58.77;95612.72;4260319;33;20214;-60
2022/08/12 06:33:39;;;;;;;0.70;0.70;;;;;;;18.92;58.54;95607.56;4258355;33;20222;-60
2022/08/12 06:36:07;;;;;;;2.00;0.60;;;;;;;19.15;58.61;95603.25;4259661;33;20209;-61
2022/08/12 06:38:33;;;;;;;0.60;0.60;;;;;;;19.11;57.32;95602.41;4274046;33;20198;-60
2022/08/12 06:44:07;;;;;;;0.70;0.70;;;;;;;19.35;58.31;95592.66;4280128;33;20224;-61
2022/08/12 06:46:37;;;;;;;0.73;0.73;;;;;;;19.48;56.43;95600.34;4264390;33;20191;-61
2022/08/12 06:49:05;;;;;;;0.80;0.80;;;;;;;19.55;56.08;95605.94;4243914;33;20207;-60
2022/08/12 06:51:32;;;;;;;0.57;0.57;;;;;;;19.65;56.55;95615.44;4273711;33;20262;-61
2022/08/12 06:54:00;;;;;;;0.53;0.53;;;;;;;19.59;56.59;95611.44;4265971;33;20266;-61
2022/08/12 06:56:26;;;;;;;2.33;1.57;;;;;;;19.74;56.32;95612.59;4281796;33;20195;-61
2022/08/12 06:58:52;;;;;;;0.40;0.40;;;;;;;19.86;55.47;95604.47;4291862;33;20203;-61
2022/08/12 07:01:18;;;;;;;0.97;0.97;;;;;;;19.94;55.46;95606.22;4283799;33;20211;-62
2022/08/12 07:03:48;;;;;;;0.73;0.73;;;;;;;19.98;54.90;95606.28;4286613;33;20195;-61
2022/08/12 07:06:18;;;;;;;0.87;0.87;;;;;;;20.00;55.98;95599.44;4286527;33;20220;-61
2022/08/12 07:08:44;;;;;;;1.47;0.60;;;;;;;20.07;55.12;95604.22;4253950;33;20195;-61
2022/08/12 07:11:15;;;;;;;0.70;0.70;;;;;;;20.12;55.90;95602.06;4278487;33;20195;-61
2022/08/12 07:13:44;;;;;;;1.33;0.83;;;;;;;20.14;53.89;95602.50;4267817;33;20215;-62
2022/08/12 07:16:13;;;;;;;0.87;0.87;;;;;;;20.20;54.89;95608.38;4256016;33;20213;-61
2022/08/12 07:18:43;;;;;;;0.60;0.60;;;;;;;20.09;55.49;95612.75;4267989;33;20243;-61
2022/08/12 07:21:11;;;;;;;0.80;0.80;;;;;;;20.07;55.82;95606.91;4260991;33;20264;-61
2022/08/12 07:23:41;;;;;;;0.77;0.77;;;;;;;20.15;56.90;95605.97;4283575;33;20292;-61
2022/08/12 07:26:14;;;;;;;1.70;1.20;;;;;;;20.28;56.38;95603.97;4263591;33;20259;-61
2022/08/12 07:28:43;;;;;;;0.50;0.50;;;;;;;20.31;55.78;95608.66;4274510;33;20229;-61
2022/08/12 07:31:11;;;;;;;0.60;0.60;;;;;;;20.20;55.19;95611.09;4257825;33;20250;-61
2022/08/12 07:33:41;;;;;;;0.63;0.63;;;;;;;20.30;54.98;95613.28;4265599;33;20351;-62
2022/08/12 07:36:28;;;;;;;4.83;1.37;;;;;;;20.24;55.17;95614.66;4253939;33;20317;-62
2022/08/12 07:38:57;;;;;;;0.50;0.40;;;;;;;20.31;54.00;95614.84;4247357;33;20203;-63
2022/08/12 07:41:30;;;;;;;1.20;1.10;;;;;;;20.31;54.78;95611.34;4276500;33;20203;-63
2022/08/12 07:44:12;;;;;;;0.60;0.60;;;;;;;20.42;54.36;95617.81;4265145;33;20266;-62
2022/08/12 07:46:42;;;;;;;0.87;0.87;;;;;;;20.53;53.91;95616.16;4275985;33;20205;-62
2022/08/12 07:49:14;;;;;;;1.13;0.77;;;;;;;20.38;54.09;95615.03;4272560;33;20209;-64
2022/08/12 07:51:41;;;;;;;0.50;0.50;;;;;;;20.42;53.92;95615.88;4264868;33;20202;-62
2022/08/12 07:54:08;;;;;;;4.70;1.00;;;;;;;20.45;53.38;95609.03;4281038;33;21815;-63
2022/08/12 07:56:35;;;;;;;1.00;1.00;;;;;;;20.48;53.04;95619.91;4255343;33;20335;-63
2022/08/12 07:59:02;;;;;;;1.30;1.30;;;;;;;20.44;54.22;95621.72;4234990;33;20270;-61
2022/08/12 08:01:31;;;;;;;1.30;1.30;;;;;;;20.48;53.41;95613.72;4278033;33;20231;-61
2022/08/12 08:06:47;;;;;;;9.20;1.80;;;;;;;20.69;52.92;95614.22;4196216;33;20200;-62
2022/08/12 08:09:20;;;;;;;0.20;0.20;;;;;;;20.69;52.50;95608.03;4257064;33;20270;-62
2022/08/12 08:14:31;;;;;;;0.50;0.50;;;;;;;20.86;52.63;95613.06;4234353;33;20278;-61
2022/08/12 08:16:59;;;;;;;0.40;0.37;;;;;;;20.87;53.27;95615.41;4255436;33;20186;-61
2022/08/12 08:19:32;;;;;;;0.40;0.40;;;;;;;20.75;53.40;95618.22;4259273;33;20293;-61
2022/08/12 08:22:00;;;;;;;0.70;0.63;;;;;;;20.68;54.12;95611.88;4241516;33;20188;-62
2022/08/12 08:24:30;;;;;;;1.87;1.13;;;;;;;20.71;54.01;95611.19;4263352;33;20305;-62
2022/08/12 08:26:58;;;;;;;0.83;0.83;;;;;;;20.77;54.08;95609.78;4292887;33;20224;-61
2022/08/12 08:29:24;;;;;;;0.43;0.43;;;;;;;20.82;53.54;95614.88;4271714;33;20186;-62
2022/08/12 08:31:58;;;;;;;0.50;0.50;;;;;;;20.83;53.30;95619.16;4269946;33;20216;-62
2022/08/12 08:34:30;;;;;;;0.50;0.50;;;;;;;20.81;53.16;95614.09;4283386;33;20198;-62
2022/08/12 08:36:55;;;;;;;0.87;0.87;;;;;;;20.89;52.76;95612.34;4271637;33;20212;-62
2022/08/12 08:39:26;;;;;;;0.93;0.93;;;;;;;20.91;53.16;95618.19;4291991;33;20253;-62
2022/08/12 08:44:36;;;;;;;0.77;0.77;;;;;;;21.12;51.58;95613.25;4285844;33;20209;-62
2022/08/12 08:47:06;;;;;;;0.40;0.40;;;;;;;21.15;52.04;95612.56;4277740;33;20217;-62
2022/08/12 08:49:31;;;;;;;0.80;0.80;;;;;;;21.19;52.59;95616.09;4287703;33;20257;-61
2022/08/12 08:51:57;;;;;;;0.60;0.60;;;;;;;21.33;52.00;95609.47;4275985;33;20219;-61
2022/08/12 08:54:23;;;;;;;0.33;0.33;;;;;;;21.22;52.01;95610.00;4265995;33;20202;-62
2022/08/12 08:56:49;;;;;;;0.67;0.67;;;;;;;21.27;51.28;95617.84;4271457;33;20194;-57
2022/08/12 08:59:21;;;;;;;1.17;0.70;;;;;;;21.24;51.73;95615.84;4287060;33;20195;-57
2022/08/12 09:01:47;;;;;;;0.80;0.80;;;;;;;21.38;51.80;95606.50;4283013;33;20258;-59
2022/08/12 09:04:13;;;;;;;0.30;0.30;;;;;;;21.38;51.41;95603.78;4287172;33;20277;-59
2022/08/12 09:06:43;;;;;;;0.30;0.30;;;;;;;21.53;50.15;95602.94;4293331;33;20190;-60
2022/08/12 09:09:10;;;;;;;0.63;0.63;;;;;;;21.56;49.26;95607.62;4285020;33;20191;-58
2022/08/12 09:14:19;;;;;;;0.40;0.40;;;;;;;21.68;48.70;95610.16;4282498;33;20250;-57
2022/08/12 09:16:45;;;;;;;0.47;0.47;;;;;;;21.69;49.71;95622.53;4272753;33;20191;-58
2022/08/12 09:19:13;;;;;;;0.50;0.50;;;;;;;21.82;48.83;95615.81;4282557;33;20195;-58
2022/08/12 09:21:40;;;;;;;0.50;0.50;;;;;;;21.87;48.75;95612.81;4277819;33;20238;-57
2022/08/12 09:24:06;;;;;;;0.83;0.60;;;;;;;21.92;48.65;95614.47;4284455;33;20198;-58
2022/08/12 09:26:33;;;;;;;0.70;0.70;;;;;;;21.89;48.82;95609.78;4284140;33;20244;-58
2022/08/12 09:28:59;;;;;;;0.47;0.47;;;;;;;21.91;48.17;95607.50;4286059;33;20234;-58
2022/08/12 09:31:26;;;;;;;1.80;1.03;;;;;;;22.00;47.35;95618.09;4284575;33;20213;-60
2022/08/12 09:33:52;;;;;;;0.67;0.67;;;;;;;22.00;46.08;95621.59;4278142;33;20239;-60
2022/08/12 09:36:17;;;;;;;0.10;0.10;;;;;;;21.99;45.84;95621.91;4273421;33;20198;-57
2022/08/12 09:38:43;;;;;;;0.50;0.50;;;;;;;22.07;45.31;95612.81;4286848;33;20207;-57
2022/08/12 09:41:09;;;;;;;0.40;0.40;;;;;;;22.16;45.29;95613.38;4282570;33;20226;-57
2022/08/12 09:46:19;;;;;;;0.73;0.73;;;;;;;22.19;45.34;95607.25;4272496;33;20221;-57
2022/08/12 09:48:44;;;;;;;0.77;0.77;;;;;;;22.21;45.87;95615.78;4279534;33;20200;-57
2022/08/12 09:51:11;;;;;;;0.80;0.80;;;;;;;22.22;46.72;95614.66;4267909;33;20199;-57
2022/08/12 09:53:38;;;;;;;0.60;0.60;;;;;;;22.22;46.35;95609.25;4288772;33;20324;-57
2022/08/12 09:56:16;;;;;;;0.40;0.40;;;;;;;22.28;46.25;95605.06;4283576;33;20285;-57
2022/08/12 09:58:41;;;;;;;0.50;0.50;;;;;;;22.31;45.60;95609.75;4283636;33;20233;-59
2022/08/12 10:01:07;;;;;;;0.20;0.20;;;;;;;22.33;45.76;95612.09;4270071;33;20262;-57
2022/08/12 10:03:35;;;;;;;0.30;0.30;;;;;;;22.40;46.04;95615.72;4284941;33;20195;-58
2022/08/12 10:06:04;;;;;;;0.53;0.53;;;;;;;22.43;45.32;95615.00;4292008;33;20205;-57
2022/08/12 10:08:34;;;;;;;0.20;0.20;;;;;;;22.39;45.71;95616.06;4287736;33;20214;-57
2022/08/12 10:13:54;;;;;;;0.50;0.50;;;;;;;22.17;46.80;95609.53;4291232;33;20258;-56
2022/08/12 10:16:28;;;;;;;0.60;0.60;;;;;;;22.20;46.34;95609.59;4286653;33;20208;-54
2022/08/12 10:19:01;;;;;;;0.33;0.33;;;;;;;22.13;46.43;95611.37;4274517;33;20234;-56
2022/08/12 10:21:35;;;;;;;0.83;0.83;;;;;;;22.12;46.47;95612.53;4287574;33;20205;-58
2022/08/12 10:24:06;;;;;;;0.80;0.80;;;;;;;22.15;46.87;95611.81;4282008;33;20205;-57
2022/08/12 10:32:02;;;;;;;0.47;0.47;;;;;;;22.40;46.44;95617.63;4282581;33;20198;-57
2022/08/12 10:34:28;;;;;;;1.17;1.07;;;;;;;22.31;46.56;95609.75;4285295;33;20191;-58
2022/08/12 10:37:00;;;;;;;0.60;0.60;;;;;;;22.40;46.51;95628.47;4275592;33;20210;-58
2022/08/12 10:39:31;;;;;;;0.50;0.50;;;;;;;22.28;46.41;95611.25;4284758;33;20289;-57
2022/08/12 10:44:41;;;;;;;0.37;0.37;;;;;;;22.38;45.99;95601.78;4286484;33;20220;-57
2022/08/12 10:47:06;;;;;;;0.40;0.40;;;;;;;22.44;45.37;95607.66;4287269;33;20285;-56
2022/08/12 10:49:33;;;;;;;1.17;1.07;;;;;;;22.38;45.74;95593.66;4293731;33;20246;-57
2022/08/12 10:52:01;;;;;;;0.20;0.20;;;;;;;22.38;45.63;95593.66;4285547;33;20204;-57
2022/08/12 10:54:27;;;;;;;2.33;0.67;;;;;;;22.41;44.40;95597.56;4286558;33;20218;-57
2022/08/12 10:56:54;;;;;;;0.57;0.57;;;;;;;22.46;44.46;95589.13;4283096;33;20217;-57
2022/08/12 10:59:20;;;;;;;0.20;0.20;;;;;;;22.60;44.21;95592.84;4276881;33;20194;-57
2022/08/12 11:01:47;;;;;;;0.30;0.30;;;;;;;22.59;45.00;95588.59;4293244;33;20201;-56
2022/08/12 11:04:12;;;;;;;0.60;0.60;;;;;;;22.67;44.48;95583.25;4287147;33;20190;-57
2022/08/12 11:06:47;;;;;;;0.30;0.30;;;;;;;22.64;44.49;95590.22;4283120;33;20245;-58
2022/08/12 11:09:23;;;;;;;0.43;0.43;;;;;;;22.77;43.91;95582.66;4300874;33;20194;-57
2022/08/12 11:11:49;;;;;;;1.00;0.63;;;;;;;22.73;44.06;95577.19;4297619;33;20200;-58
2022/08/12 11:14:16;;;;;;;0.37;0.37;;;;;;;22.74;44.32;95572.56;4287859;33;20205;-58
2022/08/12 11:16:45;;;;;;;0.20;0.20;;;;;;;22.74;44.38;95567.16;4295931;33;20205;-57
2022/08/12 11:19:11;;;;;;;0.30;0.30;;;;;;;22.86;43.91;95565.03;4290348;33;20271;-56
2022/08/12 11:21:37;;;;;;;0.33;0.33;;;;;;;22.93;43.46;95570.53;4284268;33;20296;-57
2022/08/12 11:24:03;;;;;;;0.33;0.33;;;;;;;22.97;43.06;95551.66;4298998;33;20190;-56
2022/08/12 11:26:28;;;;;;;0.33;0.33;;;;;;;23.01;43.06;95555.19;4282573;33;20198;-58
2022/08/12 11:28:54;;;;;;;0.40;0.40;;;;;;;22.99;43.03;95552.06;4297527;33;20226;-56
2022/08/12 11:31:19;;;;;;;0.83;0.80;;;;;;;22.80;43.77;95546.78;4284607;33;20205;-57
2022/08/12 11:33:44;;;;;;;0.67;0.67;;;;;;;22.81;43.84;95553.75;4287216;33;20205;-57
2022/08/12 11:36:10;;;;;;;0.40;0.40;;;;;;;22.78;44.46;95557.19;4286106;33;20191;-56
2022/08/12 11:38:35;;;;;;;0.37;0.37;;;;;;;22.85;44.17;95562.72;4284559;33;20183;-57
2022/08/12 11:41:10;;;;;;;0.53;0.53;;;;;;;22.79;44.68;95548.72;4273501;33;20201;-52
2022/08/12 11:43:35;;;;;;;0.30;0.30;;;;;;;22.91;44.10;95542.28;4277521;33;20186;-56
2022/08/12 11:46:01;;;;;;;0.67;0.67;;;;;;;22.98;44.11;95544.31;4272403;33;20274;-54
2022/08/12 11:48:26;;;;;;;0.13;0.13;;;;;;;22.95;43.55;95538.50;4284748;33;20216;-57
2022/08/12 11:50:52;;;;;;;0.30;0.30;;;;;;;22.92;43.85;95549.25;4283702;33;20217;-52
2022/08/12 11:53:17;;;;;;;0.20;0.20;;;;;;;22.89;43.49;95547.28;4292716;33;20567;-56
2022/08/12 11:55:43;;;;;;;2.80;0.77;;;;;;;22.74;43.63;95542.81;4287222;33;20224;-55
2022/08/12 11:58:08;;;;;;;0.83;0.83;;;;;;;22.70;43.53;95544.66;4278126;33;20213;-57
2022/08/12 12:00:35;;;;;;;0.63;0.63;;;;;;;22.92;42.38;95535.72;4287715;33;20201;-56
2022/08/12 12:03:00;;;;;;;0.20;0.20;;;;;;;22.99;42.36;95535.84;4271006;33;20204;-57
2022/08/12 12:05:25;;;;;;;3.30;0.87;;;;;;;22.95;42.20;95535.00;4293003;33;20206;-58
2022/08/12 12:07:51;;;;;;;0.50;0.50;;;;;;;22.84;42.46;95528.69;4270897;33;20234;-53
2022/08/12 12:10:20;;;;;;;0.30;0.30;;;;;;;23.04;41.73;95526.63;4273428;33;20254;-58
2022/08/12 12:12:48;;;;;;;0.50;0.50;;;;;;;23.15;40.91;95524.81;4283666;33;20208;-58
2022/08/12 12:15:13;;;;;;;0.27;0.27;;;;;;;23.14;41.39;95521.31;4286086;33;20186;-56
2022/08/12 12:17:40;;;;;;;0.33;0.33;;;;;;;23.30;41.39;95529.22;4275075;33;20237;-57
2022/08/12 12:20:09;;;;;;;1.33;0.30;;;;;;;23.28;41.41;95521.47;4275169;33;20195;-54
2022/08/12 12:22:41;;;;;;;0.40;0.40;;;;;;;23.21;41.65;95524.12;4270896;33;20222;-57
2022/08/12 12:25:08;;;;;;;0.63;0.63;;;;;;;23.11;42.20;95518.56;4283717;33;20213;-57
2022/08/12 12:28:02;;;;;;;0.33;0.33;;;;;;;23.10;41.04;95514.28;4272018;33;20213;-55
2022/08/12 12:30:28;;;;;;;0.10;0.10;;;;;;;23.19;41.35;95504.75;4260037;33;20195;-55
2022/08/12 12:32:53;;;;;;;0.50;0.50;;;;;;;23.31;41.40;95515.31;4282797;33;20217;-55
2022/08/12 12:35:19;;;;;;;0.30;0.30;;;;;;;23.45;40.38;95519.34;4285126;33;20201;-57
2022/08/12 12:37:53;;;;;;;0.40;0.40;;;;;;;23.50;40.19;95511.66;4279195;33;20217;-58
2022/08/12 12:40:20;;;;;;;0.30;0.30;;;;;;;23.42;40.08;95511.97;4279411;33;20198;-55
2022/08/12 12:42:45;;;;;;;0.73;0.50;;;;;;;23.37;40.22;95501.47;4286612;33;20194;-53
2022/08/12 12:45:12;;;;;;;0.73;0.73;;;;;;;23.41;40.68;95500.34;4284694;33;20182;-57
2022/08/12 12:47:51;;;;;;;0.30;0.30;;;;;;;23.50;40.61;95505.47;4286569;33;20186;-57
2022/08/12 12:50:16;;;;;;;0.57;0.30;;;;;;;23.50;40.18;95505.47;4273313;33;20249;-55
2022/08/12 12:52:43;;;;;;;1.37;0.53;;;;;;;23.53;39.79;95488.50;4284137;33;20194;-57
2022/08/12 12:55:09;;;;;;;0.20;0.20;;;;;;;23.55;39.56;95486.97;4285017;33;20194;-57
2022/08/12 12:57:41;;;;;;;0.23;0.23;;;;;;;23.63;39.57;95487.84;4281158;33;20230;-58
2022/08/12 13:00:14;;;;;;;0.53;0.53;;;;;;;23.65;38.60;95485.53;4274880;33;20309;-55
2022/08/12 13:02:49;;;;;;;0.10;0.10;;;;;;;23.75;39.09;95494.91;4285371;33;20190;-58
2022/08/12 13:05:16;;;;;;;0.27;0.27;;;;;;;23.80;39.14;95476.38;4283389;33;20190;-54
2022/08/12 13:07:42;;;;;;;0.20;0.20;;;;;;;23.77;38.95;95481.75;4264844;33;20261;-56
2022/08/12 13:10:09;;;;;;;0.60;0.60;;;;;;;23.74;39.16;95477.84;4284271;33;20221;-57
2022/08/12 13:12:35;;;;;;;0.73;0.20;;;;;;;23.73;39.52;95486.34;4275487;33;20198;-57
2022/08/12 13:15:02;;;;;;;0.37;0.37;;;;;;;23.86;38.75;95483.00;4270492;33;20256;-58
2022/08/12 13:17:30;;;;;;;0.33;0.33;;;;;;;23.90;38.28;95494.63;4278735;33;20195;-58
2022/08/12 13:20:00;;;;;;;0.20;0.20;;;;;;;23.88;37.39;95494.25;4274302;33;20270;-55
2022/08/12 13:22:25;;;;;;;0.13;0.13;;;;;;;23.80;37.78;95489.91;4273862;33;20195;-58
2022/08/12 13:24:53;;;;;;;0.27;0.27;;;;;;;23.72;37.06;95482.88;4285440;33;20212;-59
2022/08/12 13:27:19;;;;;;;0.30;0.30;;;;;;;23.63;37.98;95482.41;4283042;33;20230;-58
2022/08/12 13:29:45;;;;;;;0.17;0.17;;;;;;;23.70;38.49;95479.75;4286161;33;20191;-53
2022/08/12 13:32:11;;;;;;;0.80;0.37;;;;;;;23.71;38.78;95472.41;4283496;33;20205;-56
2022/08/12 13:34:37;;;;;;;0.20;0.20;;;;;;;23.77;38.83;95463.56;4268749;33;20291;-59
2022/08/12 13:37:04;;;;;;;0.20;0.10;;;;;;;23.87;38.77;95459.41;4278368;33;20203;-58